Seafalcon — 9HA2814 — position and weather

sailwx.info

Track history (hours):
 
Tides and Currents Weather Stations Pressure Air Temp Water Temp Dewpoint Dewpoint Depression Visibility Wind Speed Wind Dir Waves Ship Positions

Seafalcon

Last reported at 2018-Oct-02 22:08 UTC. Time now 2018-Nov-19 15:18 UTC.
Position N 01°22' E 104°27'.
Warning: this ship's position is 47 days out of date.

Length 250 m; draft 8.3 m.

Type: Tanker. MMSI: 256078000.

Date/timePositionNaut miles runAvg speedWind from/ knotsBaromVisibWave heightAir tempDewpointWater temp
2018-Oct-02 22:08N 01°22' E 104°27'112.7
2018-Oct-02 22:03N 01°21' E 104°26'112.1
2018-Oct-02 21:58N 01°21' E 104°25'712.5
2018-Oct-02 21:27N 01°17' E 104°20'512.9
2018-Oct-02 21:03N 01°16' E 104°15'112.3
2018-Oct-02 20:59N 01°16' E 104°14'613.1
2018-Oct-02 20:30N 01°15' E 104°08'613.1
2018-Oct-02 20:04N 01°14' E 104°02'112.0
2018-Oct-02 20:00N 01°14' E 104°01'510.1
2018-Oct-02 19:30N 01°14' E 103°56'1 3.1
2018-Oct-02 19:03N 01°15' E 103°55'0 0.8
2018-Oct-02 18:58N 01°15' E 103°55'0 0.1
2018-Oct-02 18:28N 01°15' E 103°55'0 0.0
2018-Oct-02 17:58N 01°15' E 103°55'0 0.0
2018-Oct-02 17:25N 01°15' E 103°55'0 0.0
2018-Oct-02 17:01N 01°15' E 103°55'0 0.0
2018-Oct-02 16:55N 01°15' E 103°55'0 0.0
2018-Oct-02 16:18N 01°15' E 103°55'0 0.0
2018-Oct-02 16:02N 01°15' E 103°55'0 0.0
2018-Oct-02 15:56N 01°15' E 103°55'0 0.0
2018-Oct-02 15:29N 01°15' E 103°55'0 0.1
2018-Oct-02 15:01N 01°15' E 103°55'0 0.0
2018-Oct-02 14:54N 01°15' E 103°55'0 0.0
2018-Oct-02 14:28N 01°15' E 103°55'0 0.0
2018-Oct-02 13:58N 01°15' E 103°55'0 0.0
2018-Oct-02 13:22N 01°15' E 103°55'0 0.0
2018-Oct-02 13:01N 01°15' E 103°55'0 0.1
2018-Oct-02 12:58N 01°15' E 103°55'0 0.0
2018-Oct-02 12:29N 01°15' E 103°55'0 0.0
2018-Oct-02 12:01N 01°15' E 103°55'0 0.2
2018-Oct-02 11:43N 01°15' E 103°55'0 0.0
2018-Oct-02 11:28N 01°15' E 103°55'0 0.1
2018-Oct-02 10:56N 01°15' E 103°55'0 0.1
2018-Oct-02 10:28N 01°15' E 103°55'0 0.1
2018-Oct-02 10:00N 01°15' E 103°55'0 0.1
2018-Oct-02 09:22N 01°15' E 103°55'0 0.0
2018-Oct-02 08:57N 01°15' E 103°55'0 0.1
2018-Oct-02 08:19N 01°15' E 103°55'0 0.0
2018-Oct-02 07:58N 01°15' E 103°55'0 0.0
2018-Oct-02 07:10N 01°15' E 103°55'0 0.4
2018-Oct-02 07:01N 01°15' E 103°55'0 0.0
2018-Oct-02 07:00N 01°15' E 103°55'1 1.2
2018-Oct-02 06:30N 01°15' E 103°54'4 7.9
2018-Oct-02 06:03N 01°16' E 103°58'0 3.6
2018-Oct-02 06:00N 01°16' E 103°58'1 2.6
2018-Oct-02 05:30N 01°16' E 103°59'2 4.7
2018-Oct-02 05:03N 01°16' E 104°02'0 3.3
2018-Oct-02 05:00N 01°16' E 104°02'3 6.7
2018-Oct-02 04:30N 01°17' E 104°05'3 6.4
2018-Oct-02 04:02N 01°17' E 104°08'0 4.6
2018-Oct-02 03:57N 01°17' E 104°08'3 6.8
2018-Oct-02 03:28N 01°18' E 104°12'3 6.2
2018-Oct-02 03:02N 01°18' E 104°14'0 5.6
2018-Oct-02 02:58N 01°18' E 104°15'3 6.0
2018-Oct-02 02:28N 01°18' E 104°18'4 7.9
2018-Oct-02 01:59N 01°20' E 104°21'3 6.6
2018-Oct-02 01:30N 01°22' E 104°23'3 7.2
2018-Oct-02 01:02N 01°24' E 104°26'1 6.6
2018-Oct-02 00:55N 01°25' E 104°27'4 8.7
2018-Oct-02 00:28N 01°27' E 104°30'4 8.8
2018-Oct-02 00:03N 01°29' E 104°33'1 9.1
2018-Oct-01 23:55N 01°29' E 104°34'13 9.1
2018-Oct-01 22:28N 01°26' E 104°47'410.8
2018-Oct-01 22:03N 01°23' E 104°50'111.7
2018-Oct-01 21:59N 01°23' E 104°51'611.0
2018-Oct-01 21:27N 01°19' E 104°55'510.8
2018-Oct-01 20:59N 01°15' E 104°58'510.9
2018-Oct-01 20:29N 01°11' E 105°02'511.0
2018-Oct-01 20:02N 01°08' E 105°06'310.9
2018-Oct-01 19:44N 01°05' E 105°08'311.0
2018-Oct-01 19:26N 01°03' E 105°11'410.9
2018-Oct-01 19:01N 00°60' E 105°14'011.6
2018-Oct-01 18:59N 00°60' E 105°14'711.1
2018-Oct-01 18:21N 00°55' E 105°19'511.2
2018-Oct-01 17:55N 00°51' E 105°23'511.4
2018-Oct-01 17:29N 00°48' E 105°26'611.4
2018-Oct-01 16:55N 00°43' E 105°31'1311.5
2018-Oct-01 15:49N 00°35' E 105°40'511.6
2018-Oct-01 15:23N 00°31' E 105°43'711.5
2018-Oct-01 14:48N 00°26' E 105°48'511.5
2018-Oct-01 14:22N 00°23' E 105°52'511.4
2018-Oct-01 13:57N 00°19' E 105°55'4 9.3
2018-Oct-01 13:28N 00°16' E 105°58'2 1.1
2018-Oct-01 11:25N 00°15' E 106°00'1 1.8
2018-Oct-01 11:03N 00°15' E 106°01'1 2.6
2018-Oct-01 10:50N 00°14' E 106°01'  
Track history (hours):
 
Tides and Currents Weather Stations Pressure Air Temp Water Temp Dewpoint Dewpoint Depression Visibility Wind Speed Wind Dir Waves Ship Positions

Seafalcon

Last reported at 2018-Oct-02 22:08 UTC. Time now 2018-Nov-19 15:18 UTC.
Position N 01°22' E 104°27'.
Warning: this ship's position is 47 days out of date.

Length 250 m; draft 8.3 m.

Type: Tanker. MMSI: 256078000.

Date/timePositionNaut miles runAvg speedWind from/ knotsBaromVisibWave heightAir tempDewpointWater temp
2018-Oct-02 22:08N 01°22' E 104°27'112.7
2018-Oct-02 22:03N 01°21' E 104°26'112.1
2018-Oct-02 21:58N 01°21' E 104°25'712.5
2018-Oct-02 21:27N 01°17' E 104°20'512.9
2018-Oct-02 21:03N 01°16' E 104°15'112.3
2018-Oct-02 20:59N 01°16' E 104°14'613.1
2018-Oct-02 20:30N 01°15' E 104°08'613.1
2018-Oct-02 20:04N 01°14' E 104°02'112.0
2018-Oct-02 20:00N 01°14' E 104°01'510.1
2018-Oct-02 19:30N 01°14' E 103°56'1 3.1
2018-Oct-02 19:03N 01°15' E 103°55'0 0.8
2018-Oct-02 18:58N 01°15' E 103°55'0 0.1
2018-Oct-02 18:28N 01°15' E 103°55'0 0.0
2018-Oct-02 17:58N 01°15' E 103°55'0 0.0
2018-Oct-02 17:25N 01°15' E 103°55'0 0.0
2018-Oct-02 17:01N 01°15' E 103°55'0 0.0
2018-Oct-02 16:55N 01°15' E 103°55'0 0.0
2018-Oct-02 16:18N 01°15' E 103°55'0 0.0
2018-Oct-02 16:02N 01°15' E 103°55'0 0.0
2018-Oct-02 15:56N 01°15' E 103°55'0 0.0
2018-Oct-02 15:29N 01°15' E 103°55'0 0.1
2018-Oct-02 15:01N 01°15' E 103°55'0 0.0
2018-Oct-02 14:54N 01°15' E 103°55'0 0.0
2018-Oct-02 14:28N 01°15' E 103°55'0 0.0
2018-Oct-02 13:58N 01°15' E 103°55'0 0.0
2018-Oct-02 13:22N 01°15' E 103°55'0 0.0
2018-Oct-02 13:01N 01°15' E 103°55'0 0.1
2018-Oct-02 12:58N 01°15' E 103°55'0 0.0
2018-Oct-02 12:29N 01°15' E 103°55'0 0.0
2018-Oct-02 12:01N 01°15' E 103°55'0 0.2
2018-Oct-02 11:43N 01°15' E 103°55'0 0.0
2018-Oct-02 11:28N 01°15' E 103°55'0 0.1
2018-Oct-02 10:56N 01°15' E 103°55'0 0.1
2018-Oct-02 10:28N 01°15' E 103°55'0 0.1
2018-Oct-02 10:00N 01°15' E 103°55'0 0.1
2018-Oct-02 09:22N 01°15' E 103°55'0 0.0
2018-Oct-02 08:57N 01°15' E 103°55'0 0.1
2018-Oct-02 08:19N 01°15' E 103°55'0 0.0
2018-Oct-02 07:58N 01°15' E 103°55'0 0.0
2018-Oct-02 07:10N 01°15' E 103°55'0 0.4
2018-Oct-02 07:01N 01°15' E 103°55'0 0.0
2018-Oct-02 07:00N 01°15' E 103°55'1 1.2
2018-Oct-02 06:30N 01°15' E 103°54'4 7.9
2018-Oct-02 06:03N 01°16' E 103°58'0 3.6
2018-Oct-02 06:00N 01°16' E 103°58'1 2.6
2018-Oct-02 05:30N 01°16' E 103°59'2 4.7
2018-Oct-02 05:03N 01°16' E 104°02'0 3.3
2018-Oct-02 05:00N 01°16' E 104°02'3 6.7
2018-Oct-02 04:30N 01°17' E 104°05'3 6.4
2018-Oct-02 04:02N 01°17' E 104°08'0 4.6
2018-Oct-02 03:57N 01°17' E 104°08'3 6.8
2018-Oct-02 03:28N 01°18' E 104°12'3 6.2
2018-Oct-02 03:02N 01°18' E 104°14'0 5.6
2018-Oct-02 02:58N 01°18' E 104°15'3 6.0
2018-Oct-02 02:28N 01°18' E 104°18'4 7.9
2018-Oct-02 01:59N 01°20' E 104°21'3 6.6
2018-Oct-02 01:30N 01°22' E 104°23'3 7.2
2018-Oct-02 01:02N 01°24' E 104°26'1 6.6
2018-Oct-02 00:55N 01°25' E 104°27'4 8.7
2018-Oct-02 00:28N 01°27' E 104°30'4 8.8
2018-Oct-02 00:03N 01°29' E 104°33'1 9.1
2018-Oct-01 23:55N 01°29' E 104°34'13 9.1
2018-Oct-01 22:28N 01°26' E 104°47'410.8
2018-Oct-01 22:03N 01°23' E 104°50'111.7
2018-Oct-01 21:59N 01°23' E 104°51'611.0
2018-Oct-01 21:27N 01°19' E 104°55'510.8
2018-Oct-01 20:59N 01°15' E 104°58'510.9
2018-Oct-01 20:29N 01°11' E 105°02'511.0
2018-Oct-01 20:02N 01°08' E 105°06'310.9
2018-Oct-01 19:44N 01°05' E 105°08'311.0
2018-Oct-01 19:26N 01°03' E 105°11'410.9
2018-Oct-01 19:01N 00°60' E 105°14'011.6
2018-Oct-01 18:59N 00°60' E 105°14'711.1
2018-Oct-01 18:21N 00°55' E 105°19'511.2
2018-Oct-01 17:55N 00°51' E 105°23'511.4
2018-Oct-01 17:29N 00°48' E 105°26'611.4
2018-Oct-01 16:55N 00°43' E 105°31'1311.5
2018-Oct-01 15:49N 00°35' E 105°40'511.6
2018-Oct-01 15:23N 00°31' E 105°43'711.5
2018-Oct-01 14:48N 00°26' E 105°48'511.5
2018-Oct-01 14:22N 00°23' E 105°52'511.4
2018-Oct-01 13:57N 00°19' E 105°55'4 9.3
2018-Oct-01 13:28N 00°16' E 105°58'2 1.1
2018-Oct-01 11:25N 00°15' E 106°00'1 1.8
2018-Oct-01 11:03N 00°15' E 106°01'1 2.6
2018-Oct-01 10:50N 00°14' E 106°01'  

Dump ship's entire track history